Report METAR

 

Warning: fopen(./cache/metarcache-KSJC.txt): failed to open stream: No such file or directory in /web/htdocs/www.oristanometeo.com/home/get-metar-conditions-inc.php on line 195 Warning: fopen(./cache/metarcache-KNUQ.txt): failed to open stream: No such file or directory in /web/htdocs/www.oristanometeo.com/home/get-metar-conditions-inc.php on line 195 Warning: fopen(./cache/metarcache-KPAO.txt): failed to open stream: No such file or directory in /web/htdocs/www.oristanometeo.com/home/get-metar-conditions-inc.php on line 195 Warning: fopen(./cache/metarcache-KRHV.txt): failed to open stream: No such file or directory in /web/htdocs/www.oristanometeo.com/home/get-metar-conditions-inc.php on line 195 Warning: fopen(./cache/metarcache-KOAK.txt): failed to open stream: No such file or directory in /web/htdocs/www.oristanometeo.com/home/get-metar-conditions-inc.php on line 195 Warning: fopen(./cache/metarcache-KSQL.txt): failed to open stream: No such file or directory in /web/htdocs/www.oristanometeo.com/home/get-metar-conditions-inc.php on line 195 Warning: fopen(./cache/metarcache-KSFO.txt): failed to open stream: No such file or directory in /web/htdocs/www.oristanometeo.com/home/get-metar-conditions-inc.php on line 195 Warning: fopen(./cache/metarcache-KE16.txt): failed to open stream: No such file or directory in /web/htdocs/www.oristanometeo.com/home/get-metar-conditions-inc.php on line 195 Warning: fopen(./cache/metarcache-KWVI.txt): failed to open stream: No such file or directory in /web/htdocs/www.oristanometeo.com/home/get-metar-conditions-inc.php on line 195 Warning: fopen(./cache/metarcache-KHAF.txt): failed to open stream: No such file or directory in /web/htdocs/www.oristanometeo.com/home/get-metar-conditions-inc.php on line 195 Warning: fopen(./cache/metarcache-KHWD.txt): failed to open stream: No such file or directory in /web/htdocs/www.oristanometeo.com/home/get-metar-conditions-inc.php on line 195 Warning: fopen(./cache/metarcache-KLVK.txt): failed to open stream: No such file or directory in /web/htdocs/www.oristanometeo.com/home/get-metar-conditions-inc.php on line 195
KSJC - San Jose, California, USA
Distance from station: NE 14km
Dati ricevuti: 10/05/2021 02:53
Parz. nuvoloso
Parz. nuvoloso
 Vento da N
Vento: N 28 km/h
Temperatura: 23°C
P.to Rugiada: 7°C
Umidità: 36%
Barometro: 1010.8 hPa
Nuvole: Parz. nuvoloso
Visibility: 16 km
Cloud details: Few Clouds 3353 m
Parz. nuvoloso 5486 m
2021/05/10 00:53 KSJC 100053Z 36015KT 10SM FEW110 SCT180 23/07 A2985 RMK AO2 SLP108 T02330067
KNUQ - Moffett Nas/Mtn, California, USA
Distance from station: N 14km
Dati ricevuti: 14/04/2021 00:40
DATI Obsoleti

 
2021/04/13 22:40 KNUQ 132240Z AUTO RMK AO2 PNO PWINO TSNO
KPAO - Palo Alto, California, USA
Distance from station: NNO 23km
Dati ricevuti: 10/05/2021 01:47
Sereno
Sereno
 Vento da NO
Vento: NO 28 km/h
Temperatura: 26°C
P.to Rugiada: 7°C
Umidità: 30%
Barometro: 1011.2 hPa
Nuvole: Sereno
Visibility: 16 km
2021/05/09 23:47 KPAO 092347Z 31015KT 10SM SKC 26/07 A2986
 
KRHV - San Jose/Reid, California, USA
Distance from station: ENE 19km
Dati ricevuti: 10/05/2021 01:47
Sereno
Sereno
 Vento da NNO
Vento: NNO 30 km/h
Temperatura: 27°C
P.to Rugiada: 5°C
Umidità: 24%
Barometro: 1011.2 hPa
Nuvole: Sereno
Visibility: 16 km
2021/05/09 23:47 KRHV 092347Z 33016KT 10SM SKC 27/05 A2986
KOAK - Oakland, California, USA
Distance from station: NNO 50km
Dati ricevuti: 10/05/2021 02:53
Few Clouds
Few Clouds
 Vento da O
Vento: O 24 km/h
Temperatura: 19°C
P.to Rugiada: 9°C
Umidità: 52%
Barometro: 1011.5 hPa
Nuvole: Few Clouds
Visibility: 16 km
Cloud details: Few Clouds 9144 m
2021/05/10 00:53 KOAK 100053Z 27013KT 10SM FEW300 19/09 A2987 RMK AO2 SLP113 T01940089
KSQL - San Carlos Airpo, California, USA
Distance from station: NO 34km
Dati ricevuti: 10/05/2021 02:47
Few Clouds
Few Clouds
 Vento da O
Vento: O 28 km/h, Raffica: 39 km/h
Temperatura: 22°C
P.to Rugiada: 5°C
Umidità: 33%
Barometro: 1011.5 hPa
Nuvole: Few Clouds
Visibility: 16 km
Cloud details: Few Clouds 6096 m
2021/05/10 00:47 KSQL 100047Z 26015G21KT 10SM FEW200 22/05 A2987
 
KSFO - San Francisco, California, USA
Distance from station: NO 49km
Dati ricevuti: 10/05/2021 01:56
Few Clouds
Few Clouds
 Vento da O
Vento: O 46 km/h, Raffica: 57 km/h
Temperatura: 19°C
P.to Rugiada: 7°C
Umidità: 46%
Barometro: 1011.9 hPa
Nuvole: Few Clouds
Visibility: 16 km
Cloud details: Few Clouds 6096 m
2021/05/09 23:56 KSFO 092356Z 27025G31KT 10SM FEW200 19/07 A2988 RMK AO2 PK WND 28032/2328 SLP118 T01940067 10244 20194 58014
KE16 - San Martin, California, USA
Distance from station: ESE 43km
Dati ricevuti: 10/05/2021 02:35
Sereno
Sereno
 Vento da NNO
Vento: NNO 24 km/h, Raffica: 37 km/h
Temperatura: 28°C
P.to Rugiada: 3°C
Umidità: 20%
Barometro: 1010.5 hPa
Nuvole: Sereno
Visibility: 16 km
2021/05/10 00:35 KE16 100035Z AUTO 33013G20KT 10SM CLR 28/03 A2984 RMK AO2 PWINO PNO
KWVI - Watsonville, California, USA
Distance from station: SSE 44km
Dati ricevuti: 10/05/2021 02:53
Sereno
Sereno
 Vento da SE
Vento: SE 13 km/h
Temperatura: 18°C
P.to Rugiada: 10°C
Umidità: 60%
Barometro: 1011.5 hPa
Nuvole: Sereno
Visibility: 14 km
2021/05/10 00:53 KWVI 100053Z AUTO 14007KT 9SM CLR 18/10 A2987 RMK AO2 SLP115 T01780100
 
KHAF - Half Moon Bay, California, USA
Distance from station: ONO 50km
Dati ricevuti: 10/05/2021 02:55
Haze, Sereno
Haze, Sereno
 Vento da NNO
Vento: NNO 28 km/h, Raffica: 43 km/h
Temperatura: 13°C
P.to Rugiada: 8°C
Umidità: 72%
Barometro: 1013.2 hPa
Summary: Haze
Nuvole: Sereno
Visibility: 5 km
2021/05/10 00:55 KHAF 100055Z AUTO 34015G23KT 3SM HZ CLR 13/08 A2992 RMK AO2
KHWD - Hayward, California, USA
Distance from station: N 44km
Dati ricevuti: 10/05/2021 02:54
Sereno
Sereno
 Vento da O
Vento: O 17 km/h
Temperatura: 18°C
P.to Rugiada: 10°C
Umidità: 60%
Barometro: 1011.5 hPa
Nuvole: Sereno
Visibility: 16 km
2021/05/10 00:54 KHWD 100054Z 27009KT 10SM CLR 18/10 A2987 RMK AO2 SLP123 T01830100
KLVK - Livermore, California, USA
Distance from station: NNE 51km
Dati ricevuti: 10/05/2021 02:53
Sereno
Sereno
 Vento da OSO
Vento: OSO 22 km/h
Temperatura: 26°C
P.to Rugiada: 1°C
Umidità: 20%
Barometro: 1010.5 hPa
Nuvole: Sereno
Visibility: 16 km
2021/05/10 00:53 KLVK 100053Z 25012KT 10SM CLR 26/01 A2984 RMK AO2 SLP102 T02610006